Strafford, MO (65757)

03:40 PM CDT on Juli 04, 2015 (GMT -0500)
Red Clover & Jarrett Branch | | Change Station
CLOSE
Current Station
Personligvejrstation
Location: Strafford, MO
Højde: 1313 ft
Vejrstationer i nærheden

Elev 1313 ft 37.31 °N, 93.04 °W | Updated 9 seconds ago

Delvis skyet
Delvis skyet
83.8 ° F
Føles som 87 ° F
N
2.2
Vind Skiftende Vind Vest
Gusts 2.2 mph

I dag
Høj -- | Lav -- ° F
--% Risiko for nedbør
I går
Høj -- | Lav -- ° F
Precip. -- tommer
5:57 AM 8:36 PM
Aftagende måne, 90% visible
Tryk 29.95 tommer
Sigtbarhed 10.0 mil
Skyer Delvis skyet 4500 ft
Delvis skyet 5500 ft
Varmeindeks 87 ° F
Dugpunkt 68 ° F
Luftfugtighed 60%
Regnmængde 0.00 tommer
Snedybde Ikke tilgængelig.
UV 6 fra 12
Pollen 3.60 fra 12
Luftkvalitet Ikke tilgængelig.
Flu Activity Ikke tilgængelig.
METAR KSGF 041952Z 00000KT 10SM BKN045 BKN055 28/17 A2999 RMK AO2 SLP142 T02830172

More Conditions Fewer Conditions

Tryk 29.95 tommer
Sigtbarhed 10.0 mil
Skyer Delvis skyet 4500 ft
Delvis skyet 5500 ft
Varmeindeks 87 ° F
Dugpunkt 68 ° F
Luftfugtighed 60%
Regnmængde 0.00 tommer
Snedybde Ikke tilgængelig.
UV 6 fra 12
Pollen 3.60 fra 12
Luftkvalitet Ikke tilgængelig.
Flu Activity Ikke tilgængelig.
METAR KSGF 041952Z 00000KT 10SM BKN045 BKN055 28/17 A2999 RMK AO2 SLP142 T02830172

More Conditions Fewer Conditions

10-Day Weather Forecast

×

Almanac

Astronomi

Jul. 04, 2015 Opgang Nedgang
Faktisktidspunkt
Civilttusmørke
Nautisktusmørke
Astronomisktusmørke
Måne
Synligtlys’ længde
Dagens længde
Tomorrow will be .
, % of the Moon is Illuminated

Ekstremer i dag

State Highs State Lows

Community

WunderPhotos

Upload Photos

1,835,091 Billeder uploaded!

WunderBlogs® & News

Nearby

Luftkvalitet

  Luftkvalitet AQ-indeks Forureningskilder
Not available.

Snedybde

Station Depth Højde

Jordskælvsaktivitet

By Distance Mag. Time & Date
Minimum magnitude displayed is 2.5.

Kystnære vandtemperaturer

Sted Temperatur

Stations

Vejrstationer i nærheden

Stationenssted Temp. Vindeffekt Dugpunkt Luftfugtighed Vind Precip. Elev Opdateret Type